sensor_id;sensor_type;location;lat;lon;timestamp;P1;durP1;ratioP1;P2;durP2;ratioP2
57889;SDS011;43707;50.184;18.966;2023-07-31T00:01:05;0.10;;;0.10;;
57889;SDS011;43707;50.184;18.966;2023-07-31T00:03:30;4.00;;;0.20;;
57889;SDS011;43707;50.184;18.966;2023-07-31T00:05:55;0.20;;;0.10;;
57889;SDS011;43707;50.184;18.966;2023-07-31T00:08:21;1.40;;;0.30;;
57889;SDS011;43707;50.184;18.966;2023-07-31T00:10:47;6.60;;;0.30;;
57889;SDS011;43707;50.184;18.966;2023-07-31T00:13:12;0.40;;;0.20;;
57889;SDS011;43707;50.184;18.966;2023-07-31T00:15:38;0.20;;;0.20;;
57889;SDS011;43707;50.184;18.966;2023-07-31T00:18:03;5.50;;;0.20;;
57889;SDS011;43707;50.184;18.966;2023-07-31T00:20:28;0.10;;;0.10;;
57889;SDS011;43707;50.184;18.966;2023-07-31T00:22:54;0.70;;;0.20;;
57889;SDS011;43707;50.184;18.966;2023-07-31T00:25:19;0.10;;;0.10;;
57889;SDS011;43707;50.184;18.966;2023-07-31T00:27:45;0.20;;;0.10;;
57889;SDS011;43707;50.184;18.966;2023-07-31T00:30:11;0.10;;;0.10;;
57889;SDS011;43707;50.184;18.966;2023-07-31T00:32:37;0.40;;;0.10;;
57889;SDS011;43707;50.184;18.966;2023-07-31T00:35:02;0.20;;;0.10;;
57889;SDS011;43707;50.184;18.966;2023-07-31T00:37:28;0.90;;;0.20;;
57889;SDS011;43707;50.184;18.966;2023-07-31T00:39:53;0.30;;;0.20;;
57889;SDS011;43707;50.184;18.966;2023-07-31T00:42:19;0.20;;;0.20;;
57889;SDS011;43707;50.184;18.966;2023-07-31T00:44:44;0.10;;;0.10;;
57889;SDS011;43707;50.184;18.966;2023-07-31T00:47:10;0.10;;;0.10;;
57889;SDS011;43707;50.184;18.966;2023-07-31T00:49:35;0.10;;;0.10;;
57889;SDS011;43707;50.184;18.966;2023-07-31T00:52:01;0.10;;;0.10;;
57889;SDS011;43707;50.184;18.966;2023-07-31T00:54:27;0.10;;;0.10;;
57889;SDS011;43707;50.184;18.966;2023-07-31T00:56:53;0.20;;;0.20;;
57889;SDS011;43707;50.184;18.966;2023-07-31T00:59:19;0.10;;;0.10;;
57889;SDS011;43707;50.184;18.966;2023-07-31T01:01:45;0.10;;;0.10;;
57889;SDS011;43707;50.184;18.966;2023-07-31T01:04:10;1.60;;;0.20;;
57889;SDS011;43707;50.184;18.966;2023-07-31T01:06:38;0.10;;;0.10;;
57889;SDS011;43707;50.184;18.966;2023-07-31T01:09:16;0.10;;;0.10;;
57889;SDS011;43707;50.184;18.966;2023-07-31T01:11:52;0.10;;;0.10;;
57889;SDS011;43707;50.184;18.966;2023-07-31T01:14:18;0.10;;;0.10;;
57889;SDS011;43707;50.184;18.966;2023-07-31T01:16:44;2.70;;;0.10;;
57889;SDS011;43707;50.184;18.966;2023-07-31T01:19:09;0.10;;;0.10;;
57889;SDS011;43707;50.184;18.966;2023-07-31T01:24:21;0.20;;;0.10;;
57889;SDS011;43707;50.184;18.966;2023-07-31T01:27:12;0.20;;;0.20;;
57889;SDS011;43707;50.184;18.966;2023-07-31T01:29:43;0.10;;;0.10;;
57889;SDS011;43707;50.184;18.966;2023-07-31T01:32:14;0.10;;;0.10;;
57889;SDS011;43707;50.184;18.966;2023-07-31T01:34:40;0.00;;;0.00;;
57889;SDS011;43707;50.184;18.966;2023-07-31T01:37:06;0.60;;;0.00;;
57889;SDS011;43707;50.184;18.966;2023-07-31T01:39:32;0.10;;;0.10;;
57889;SDS011;43707;50.184;18.966;2023-07-31T01:41:57;0.20;;;0.10;;
57889;SDS011;43707;50.184;18.966;2023-07-31T01:44:22;0.00;;;0.00;;
57889;SDS011;43707;50.184;18.966;2023-07-31T01:46:48;0.40;;;0.20;;
57889;SDS011;43707;50.184;18.966;2023-07-31T01:49:13;0.10;;;0.10;;
57889;SDS011;43707;50.184;18.966;2023-07-31T01:51:38;2.00;;;0.20;;
57889;SDS011;43707;50.184;18.966;2023-07-31T01:54:04;0.50;;;0.10;;
57889;SDS011;43707;50.184;18.966;2023-07-31T01:56:30;0.10;;;0.10;;
57889;SDS011;43707;50.184;18.966;2023-07-31T01:58:55;2.20;;;0.10;;
57889;SDS011;43707;50.184;18.966;2023-07-31T02:01:21;0.10;;;0.00;;
57889;SDS011;43707;50.184;18.966;2023-07-31T02:03:46;0.10;;;0.10;;
57889;SDS011;43707;50.184;18.966;2023-07-31T02:06:11;0.10;;;0.10;;
57889;SDS011;43707;50.184;18.966;2023-07-31T02:08:37;0.10;;;0.10;;
57889;SDS011;43707;50.184;18.966;2023-07-31T02:11:02;0.10;;;0.10;;
57889;SDS011;43707;50.184;18.966;2023-07-31T02:13:29;0.10;;;0.10;;
57889;SDS011;43707;50.184;18.966;2023-07-31T02:15:54;0.10;;;0.10;;
57889;SDS011;43707;50.184;18.966;2023-07-31T02:18:20;0.10;;;0.10;;
57889;SDS011;43707;50.184;18.966;2023-07-31T02:20:49;4.10;;;0.50;;
57889;SDS011;43707;50.184;18.966;2023-07-31T02:23:15;0.20;;;0.20;;
57889;SDS011;43707;50.184;18.966;2023-07-31T02:25:40;0.10;;;0.10;;
57889;SDS011;43707;50.184;18.966;2023-07-31T02:28:05;2.40;;;0.10;;
57889;SDS011;43707;50.184;18.966;2023-07-31T02:30:31;0.50;;;0.10;;
57889;SDS011;43707;50.184;18.966;2023-07-31T02:32:56;0.10;;;0.10;;
57889;SDS011;43707;50.184;18.966;2023-07-31T02:35:22;0.20;;;0.10;;
57889;SDS011;43707;50.184;18.966;2023-07-31T02:37:47;0.10;;;0.10;;
57889;SDS011;43707;50.184;18.966;2023-07-31T02:40:12;0.10;;;0.10;;
57889;SDS011;43707;50.184;18.966;2023-07-31T02:42:38;0.00;;;0.00;;
57889;SDS011;43707;50.184;18.966;2023-07-31T02:45:03;0.10;;;0.10;;
57889;SDS011;43707;50.184;18.966;2023-07-31T02:47:29;0.10;;;0.10;;
57889;SDS011;43707;50.184;18.966;2023-07-31T02:49:55;0.00;;;0.00;;
57889;SDS011;43707;50.184;18.966;2023-07-31T02:52:21;0.00;;;0.00;;
57889;SDS011;43707;50.184;18.966;2023-07-31T02:54:46;0.00;;;0.00;;
57889;SDS011;43707;50.184;18.966;2023-07-31T02:57:11;2.20;;;0.10;;
57889;SDS011;43707;50.184;18.966;2023-07-31T02:59:37;1.30;;;0.10;;
57889;SDS011;43707;50.184;18.966;2023-07-31T03:02:02;0.10;;;0.10;;
57889;SDS011;43707;50.184;18.966;2023-07-31T03:04:28;0.20;;;0.10;;
57889;SDS011;43707;50.184;18.966;2023-07-31T03:06:53;5.20;;;0.10;;
57889;SDS011;43707;50.184;18.966;2023-07-31T03:09:19;1.20;;;0.10;;
57889;SDS011;43707;50.184;18.966;2023-07-31T03:11:44;0.00;;;0.00;;
57889;SDS011;43707;50.184;18.966;2023-07-31T03:14:09;0.10;;;0.10;;
57889;SDS011;43707;50.184;18.966;2023-07-31T03:16:35;0.40;;;0.20;;
57889;SDS011;43707;50.184;18.966;2023-07-31T03:19:00;0.00;;;0.00;;
57889;SDS011;43707;50.184;18.966;2023-07-31T03:21:26;0.00;;;0.00;;
57889;SDS011;43707;50.184;18.966;2023-07-31T03:23:51;0.10;;;0.10;;
57889;SDS011;43707;50.184;18.966;2023-07-31T03:26:16;0.00;;;0.00;;
57889;SDS011;43707;50.184;18.966;2023-07-31T03:28:42;0.50;;;0.10;;
57889;SDS011;43707;50.184;18.966;2023-07-31T03:31:07;0.40;;;0.10;;
57889;SDS011;43707;50.184;18.966;2023-07-31T03:33:33;0.00;;;0.00;;
57889;SDS011;43707;50.184;18.966;2023-07-31T03:35:59;0.00;;;0.00;;
57889;SDS011;43707;50.184;18.966;2023-07-31T03:38:24;0.10;;;0.10;;
57889;SDS011;43707;50.184;18.966;2023-07-31T03:40:49;0.00;;;0.00;;
57889;SDS011;43707;50.184;18.966;2023-07-31T03:43:15;0.00;;;0.00;;
57889;SDS011;43707;50.184;18.966;2023-07-31T03:45:40;0.10;;;0.10;;
57889;SDS011;43707;50.184;18.966;2023-07-31T03:48:06;0.40;;;0.10;;
57889;SDS011;43707;50.184;18.966;2023-07-31T03:50:32;0.00;;;0.00;;
57889;SDS011;43707;50.184;18.966;2023-07-31T03:52:58;0.10;;;0.10;;
57889;SDS011;43707;50.184;18.966;2023-07-31T03:55:23;0.00;;;0.00;;
57889;SDS011;43707;50.184;18.966;2023-07-31T03:57:49;0.10;;;0.10;;
57889;SDS011;43707;50.184;18.966;2023-07-31T04:00:14;0.10;;;0.10;;
57889;SDS011;43707;50.184;18.966;2023-07-31T04:02:40;0.10;;;0.10;;
57889;SDS011;43707;50.184;18.966;2023-07-31T04:05:05;0.10;;;0.10;;
57889;SDS011;43707;50.184;18.966;2023-07-31T04:07:31;0.10;;;0.10;;
57889;SDS011;43707;50.184;18.966;2023-07-31T04:09:57;0.10;;;0.10;;
57889;SDS011;43707;50.184;18.966;2023-07-31T04:12:22;1.40;;;0.10;;
57889;SDS011;43707;50.184;18.966;2023-07-31T04:14:47;0.00;;;0.00;;
57889;SDS011;43707;50.184;18.966;2023-07-31T04:17:13;0.10;;;0.10;;
57889;SDS011;43707;50.184;18.966;2023-07-31T04:19:38;0.10;;;0.00;;
57889;SDS011;43707;50.184;18.966;2023-07-31T04:22:04;0.00;;;0.00;;
57889;SDS011;43707;50.184;18.966;2023-07-31T04:24:29;0.00;;;0.00;;
57889;SDS011;43707;50.184;18.966;2023-07-31T04:26:55;0.10;;;0.10;;
57889;SDS011;43707;50.184;18.966;2023-07-31T04:29:21;0.00;;;0.00;;
57889;SDS011;43707;50.184;18.966;2023-07-31T04:31:47;0.10;;;0.10;;
57889;SDS011;43707;50.184;18.966;2023-07-31T04:34:13;0.10;;;0.10;;
57889;SDS011;43707;50.184;18.966;2023-07-31T04:36:38;0.10;;;0.10;;
57889;SDS011;43707;50.184;18.966;2023-07-31T04:39:04;0.10;;;0.10;;
57889;SDS011;43707;50.184;18.966;2023-07-31T04:41:29;0.10;;;0.10;;
57889;SDS011;43707;50.184;18.966;2023-07-31T04:43:55;0.40;;;0.10;;
57889;SDS011;43707;50.184;18.966;2023-07-31T04:46:20;0.10;;;0.10;;
57889;SDS011;43707;50.184;18.966;2023-07-31T04:48:45;0.10;;;0.00;;
57889;SDS011;43707;50.184;18.966;2023-07-31T04:51:11;0.10;;;0.10;;
57889;SDS011;43707;50.184;18.966;2023-07-31T04:53:36;0.10;;;0.10;;
57889;SDS011;43707;50.184;18.966;2023-07-31T04:56:02;0.00;;;0.00;;
57889;SDS011;43707;50.184;18.966;2023-07-31T04:58:27;3.00;;;0.20;;
57889;SDS011;43707;50.184;18.966;2023-07-31T05:00:52;0.10;;;0.10;;
57889;SDS011;43707;50.184;18.966;2023-07-31T05:03:18;2.10;;;0.10;;
57889;SDS011;43707;50.184;18.966;2023-07-31T05:05:43;0.10;;;0.10;;
57889;SDS011;43707;50.184;18.966;2023-07-31T05:08:09;0.00;;;0.00;;
57889;SDS011;43707;50.184;18.966;2023-07-31T05:10:34;1.70;;;0.10;;
57889;SDS011;43707;50.184;18.966;2023-07-31T05:12:59;0.10;;;0.10;;
57889;SDS011;43707;50.184;18.966;2023-07-31T05:15:25;0.00;;;0.00;;
57889;SDS011;43707;50.184;18.966;2023-07-31T05:17:50;0.00;;;0.00;;
57889;SDS011;43707;50.184;18.966;2023-07-31T05:20:16;0.80;;;0.10;;
57889;SDS011;43707;50.184;18.966;2023-07-31T05:22:41;0.10;;;0.10;;
57889;SDS011;43707;50.184;18.966;2023-07-31T05:25:07;0.00;;;0.00;;
57889;SDS011;43707;50.184;18.966;2023-07-31T05:27:32;0.00;;;0.00;;
57889;SDS011;43707;50.184;18.966;2023-07-31T05:29:58;0.00;;;0.00;;
57889;SDS011;43707;50.184;18.966;2023-07-31T05:32:23;0.10;;;0.00;;
57889;SDS011;43707;50.184;18.966;2023-07-31T05:34:52;0.10;;;0.10;;
57889;SDS011;43707;50.184;18.966;2023-07-31T05:37:18;0.10;;;0.10;;
57889;SDS011;43707;50.184;18.966;2023-07-31T05:39:44;0.00;;;0.00;;
57889;SDS011;43707;50.184;18.966;2023-07-31T05:42:09;0.10;;;0.10;;
57889;SDS011;43707;50.184;18.966;2023-07-31T05:44:35;0.10;;;0.10;;
57889;SDS011;43707;50.184;18.966;2023-07-31T05:47:00;0.10;;;0.10;;
57889;SDS011;43707;50.184;18.966;2023-07-31T05:49:26;0.00;;;0.00;;
57889;SDS011;43707;50.184;18.966;2023-07-31T05:51:51;0.10;;;0.10;;
57889;SDS011;43707;50.184;18.966;2023-07-31T05:54:16;0.00;;;0.00;;
57889;SDS011;43707;50.184;18.966;2023-07-31T05:56:42;0.10;;;0.10;;
57889;SDS011;43707;50.184;18.966;2023-07-31T05:59:08;1.30;;;0.00;;
57889;SDS011;43707;50.184;18.966;2023-07-31T06:01:34;0.00;;;0.00;;
57889;SDS011;43707;50.184;18.966;2023-07-31T06:04:00;1.80;;;0.10;;
57889;SDS011;43707;50.184;18.966;2023-07-31T06:06:26;0.10;;;0.10;;
57889;SDS011;43707;50.184;18.966;2023-07-31T06:08:52;0.10;;;0.10;;
57889;SDS011;43707;50.184;18.966;2023-07-31T06:11:18;2.50;;;0.20;;
57889;SDS011;43707;50.184;18.966;2023-07-31T06:13:45;10.70;;;0.40;;
57889;SDS011;43707;50.184;18.966;2023-07-31T06:16:12;8.50;;;0.30;;
57889;SDS011;43707;50.184;18.966;2023-07-31T06:18:37;1.00;;;0.10;;
57889;SDS011;43707;50.184;18.966;2023-07-31T06:21:02;1.50;;;0.20;;
57889;SDS011;43707;50.184;18.966;2023-07-31T06:23:28;9.30;;;0.20;;
57889;SDS011;43707;50.184;18.966;2023-07-31T06:25:53;1.80;;;0.10;;
57889;SDS011;43707;50.184;18.966;2023-07-31T06:28:18;2.00;;;0.20;;
57889;SDS011;43707;50.184;18.966;2023-07-31T06:30:44;0.20;;;0.10;;
57889;SDS011;43707;50.184;18.966;2023-07-31T06:33:09;0.00;;;0.00;;
57889;SDS011;43707;50.184;18.966;2023-07-31T06:35:35;0.10;;;0.10;;
57889;SDS011;43707;50.184;18.966;2023-07-31T06:38:00;1.30;;;0.50;;
57889;SDS011;43707;50.184;18.966;2023-07-31T06:40:27;0.10;;;0.10;;
57889;SDS011;43707;50.184;18.966;2023-07-31T06:42:52;0.30;;;0.10;;
57889;SDS011;43707;50.184;18.966;2023-07-31T06:45:18;0.10;;;0.10;;
57889;SDS011;43707;50.184;18.966;2023-07-31T06:47:43;0.30;;;0.20;;
57889;SDS011;43707;50.184;18.966;2023-07-31T06:50:09;0.60;;;0.10;;
57889;SDS011;43707;50.184;18.966;2023-07-31T06:52:34;0.10;;;0.10;;
57889;SDS011;43707;50.184;18.966;2023-07-31T06:55:00;0.10;;;0.10;;
57889;SDS011;43707;50.184;18.966;2023-07-31T06:57:28;0.10;;;0.10;;
57889;SDS011;43707;50.184;18.966;2023-07-31T06:59:53;0.20;;;0.10;;
57889;SDS011;43707;50.184;18.966;2023-07-31T07:02:19;0.20;;;0.10;;
57889;SDS011;43707;50.184;18.966;2023-07-31T07:04:44;5.20;;;0.30;;
57889;SDS011;43707;50.184;18.966;2023-07-31T07:07:10;1.00;;;0.20;;
57889;SDS011;43707;50.184;18.966;2023-07-31T07:09:35;0.30;;;0.30;;
57889;SDS011;43707;50.184;18.966;2023-07-31T07:12:00;1.50;;;0.30;;
57889;SDS011;43707;50.184;18.966;2023-07-31T07:14:26;0.50;;;0.30;;
57889;SDS011;43707;50.184;18.966;2023-07-31T07:16:51;0.50;;;0.20;;
57889;SDS011;43707;50.184;18.966;2023-07-31T07:19:17;0.60;;;0.20;;
57889;SDS011;43707;50.184;18.966;2023-07-31T07:21:42;0.30;;;0.30;;
57889;SDS011;43707;50.184;18.966;2023-07-31T07:24:08;0.30;;;0.30;;
57889;SDS011;43707;50.184;18.966;2023-07-31T07:26:33;0.70;;;0.50;;
57889;SDS011;43707;50.184;18.966;2023-07-31T07:28:58;1.40;;;0.60;;
57889;SDS011;43707;50.184;18.966;2023-07-31T07:31:26;0.30;;;0.30;;
57889;SDS011;43707;50.184;18.966;2023-07-31T07:33:51;1.80;;;0.70;;
57889;SDS011;43707;50.184;18.966;2023-07-31T07:36:17;1.60;;;0.60;;
57889;SDS011;43707;50.184;18.966;2023-07-31T07:38:42;0.90;;;0.40;;
57889;SDS011;43707;50.184;18.966;2023-07-31T07:41:08;0.40;;;0.30;;
57889;SDS011;43707;50.184;18.966;2023-07-31T07:43:33;0.40;;;0.30;;
57889;SDS011;43707;50.184;18.966;2023-07-31T07:45:58;0.30;;;0.30;;
57889;SDS011;43707;50.184;18.966;2023-07-31T07:48:24;0.50;;;0.20;;
57889;SDS011;43707;50.184;18.966;2023-07-31T07:50:50;0.40;;;0.40;;
57889;SDS011;43707;50.184;18.966;2023-07-31T07:53:15;1.70;;;0.40;;
57889;SDS011;43707;50.184;18.966;2023-07-31T07:55:41;0.50;;;0.40;;
57889;SDS011;43707;50.184;18.966;2023-07-31T07:58:07;1.00;;;0.40;;
57889;SDS011;43707;50.184;18.966;2023-07-31T08:00:33;3.30;;;0.70;;
57889;SDS011;43707;50.184;18.966;2023-07-31T08:02:58;0.70;;;0.40;;
57889;SDS011;43707;50.184;18.966;2023-07-31T08:05:23;0.80;;;0.30;;
57889;SDS011;43707;50.184;18.966;2023-07-31T08:07:49;0.90;;;0.50;;
57889;SDS011;43707;50.184;18.966;2023-07-31T08:10:14;0.30;;;0.30;;
57889;SDS011;43707;50.184;18.966;2023-07-31T08:12:39;0.90;;;0.40;;
57889;SDS011;43707;50.184;18.966;2023-07-31T08:15:05;0.90;;;0.30;;
57889;SDS011;43707;50.184;18.966;2023-07-31T08:17:31;0.60;;;0.40;;
57889;SDS011;43707;50.184;18.966;2023-07-31T08:19:56;0.80;;;0.30;;
57889;SDS011;43707;50.184;18.966;2023-07-31T08:22:23;0.70;;;0.20;;
57889;SDS011;43707;50.184;18.966;2023-07-31T08:24:49;0.30;;;0.20;;
57889;SDS011;43707;50.184;18.966;2023-07-31T08:27:14;1.40;;;0.40;;
57889;SDS011;43707;50.184;18.966;2023-07-31T08:29:39;0.60;;;0.30;;
57889;SDS011;43707;50.184;18.966;2023-07-31T08:32:05;0.40;;;0.30;;
57889;SDS011;43707;50.184;18.966;2023-07-31T08:34:31;0.40;;;0.30;;
57889;SDS011;43707;50.184;18.966;2023-07-31T08:36:56;0.50;;;0.30;;
57889;SDS011;43707;50.184;18.966;2023-07-31T08:39:21;0.80;;;0.30;;
57889;SDS011;43707;50.184;18.966;2023-07-31T08:41:47;2.40;;;0.20;;
57889;SDS011;43707;50.184;18.966;2023-07-31T08:44:12;0.90;;;0.30;;
57889;SDS011;43707;50.184;18.966;2023-07-31T08:46:39;0.20;;;0.10;;
57889;SDS011;43707;50.184;18.966;2023-07-31T08:49:05;0.50;;;0.20;;
57889;SDS011;43707;50.184;18.966;2023-07-31T08:51:34;0.60;;;0.20;;
57889;SDS011;43707;50.184;18.966;2023-07-31T08:54:00;0.20;;;0.20;;
57889;SDS011;43707;50.184;18.966;2023-07-31T08:56:26;0.20;;;0.10;;
57889;SDS011;43707;50.184;18.966;2023-07-31T08:58:53;0.20;;;0.20;;
57889;SDS011;43707;50.184;18.966;2023-07-31T09:01:19;0.20;;;0.10;;
57889;SDS011;43707;50.184;18.966;2023-07-31T09:03:45;0.40;;;0.30;;
57889;SDS011;43707;50.184;18.966;2023-07-31T09:06:11;0.30;;;0.20;;
57889;SDS011;43707;50.184;18.966;2023-07-31T09:08:37;0.20;;;0.20;;
57889;SDS011;43707;50.184;18.966;2023-07-31T09:11:04;0.60;;;0.10;;
57889;SDS011;43707;50.184;18.966;2023-07-31T09:13:30;0.20;;;0.20;;
57889;SDS011;43707;50.184;18.966;2023-07-31T09:15:56;0.30;;;0.20;;
57889;SDS011;43707;50.184;18.966;2023-07-31T09:18:22;0.40;;;0.20;;
57889;SDS011;43707;50.184;18.966;2023-07-31T09:21:03;0.20;;;0.20;;
57889;SDS011;43707;50.184;18.966;2023-07-31T09:26:08;3.10;;;0.40;;
57889;SDS011;43707;50.184;18.966;2023-07-31T09:28:34;1.00;;;0.30;;
57889;SDS011;43707;50.184;18.966;2023-07-31T09:30:59;0.60;;;0.30;;
57889;SDS011;43707;50.184;18.966;2023-07-31T09:33:25;0.40;;;0.30;;
57889;SDS011;43707;50.184;18.966;2023-07-31T09:35:50;0.40;;;0.30;;
57889;SDS011;43707;50.184;18.966;2023-07-31T09:38:16;0.70;;;0.20;;
57889;SDS011;43707;50.184;18.966;2023-07-31T09:40:42;0.60;;;0.30;;
57889;SDS011;43707;50.184;18.966;2023-07-31T09:43:18;2.00;;;0.30;;
57889;SDS011;43707;50.184;18.966;2023-07-31T09:45:44;2.00;;;0.30;;
57889;SDS011;43707;50.184;18.966;2023-07-31T09:48:14;2.20;;;0.60;;
57889;SDS011;43707;50.184;18.966;2023-07-31T09:50:47;3.70;;;0.30;;
57889;SDS011;43707;50.184;18.966;2023-07-31T09:53:13;5.40;;;0.30;;
57889;SDS011;43707;50.184;18.966;2023-07-31T09:55:39;2.30;;;0.30;;
57889;SDS011;43707;50.184;18.966;2023-07-31T09:58:06;0.30;;;0.20;;
57889;SDS011;43707;50.184;18.966;2023-07-31T10:00:33;1.00;;;0.30;;
57889;SDS011;43707;50.184;18.966;2023-07-31T10:02:59;2.60;;;0.20;;
57889;SDS011;43707;50.184;18.966;2023-07-31T10:05:30;2.10;;;0.30;;
57889;SDS011;43707;50.184;18.966;2023-07-31T10:07:59;3.70;;;0.50;;
57889;SDS011;43707;50.184;18.966;2023-07-31T10:10:25;2.60;;;0.50;;
57889;SDS011;43707;50.184;18.966;2023-07-31T10:12:54;3.20;;;0.60;;
57889;SDS011;43707;50.184;18.966;2023-07-31T10:15:24;2.30;;;0.60;;
57889;SDS011;43707;50.184;18.966;2023-07-31T10:17:51;0.70;;;0.30;;
57889;SDS011;43707;50.184;18.966;2023-07-31T10:20:17;0.40;;;0.30;;
57889;SDS011;43707;50.184;18.966;2023-07-31T10:22:43;3.20;;;0.30;;
57889;SDS011;43707;50.184;18.966;2023-07-31T10:25:09;1.00;;;0.30;;
57889;SDS011;43707;50.184;18.966;2023-07-31T10:27:35;0.70;;;0.20;;
57889;SDS011;43707;50.184;18.966;2023-07-31T10:30:02;0.60;;;0.10;;
57889;SDS011;43707;50.184;18.966;2023-07-31T10:32:29;0.40;;;0.30;;
57889;SDS011;43707;50.184;18.966;2023-07-31T10:34:55;0.40;;;0.30;;
57889;SDS011;43707;50.184;18.966;2023-07-31T10:37:24;0.50;;;0.20;;
57889;SDS011;43707;50.184;18.966;2023-07-31T10:39:56;0.10;;;0.10;;
57889;SDS011;43707;50.184;18.966;2023-07-31T10:42:35;0.10;;;0.10;;
57889;SDS011;43707;50.184;18.966;2023-07-31T10:45:10;0.10;;;0.10;;
57889;SDS011;43707;50.184;18.966;2023-07-31T10:47:37;0.00;;;0.00;;
57889;SDS011;43707;50.184;18.966;2023-07-31T10:50:16;0.50;;;0.20;;
57889;SDS011;43707;50.184;18.966;2023-07-31T10:52:47;0.20;;;0.20;;
57889;SDS011;43707;50.184;18.966;2023-07-31T10:55:28;0.20;;;0.20;;
57889;SDS011;43707;50.184;18.966;2023-07-31T10:58:07;0.20;;;0.10;;
57889;SDS011;43707;50.184;18.966;2023-07-31T11:00:36;0.40;;;0.20;;
57889;SDS011;43707;50.184;18.966;2023-07-31T11:03:07;0.40;;;0.30;;
57889;SDS011;43707;50.184;18.966;2023-07-31T11:13:26;1.50;;;0.50;;
57889;SDS011;43707;50.184;18.966;2023-07-31T11:15:53;1.30;;;0.60;;
57889;SDS011;43707;50.184;18.966;2023-07-31T11:18:18;2.20;;;0.70;;
57889;SDS011;43707;50.184;18.966;2023-07-31T11:20:44;1.10;;;0.40;;
57889;SDS011;43707;50.184;18.966;2023-07-31T11:23:10;1.00;;;0.50;;
57889;SDS011;43707;50.184;18.966;2023-07-31T11:25:36;0.50;;;0.40;;
57889;SDS011;43707;50.184;18.966;2023-07-31T11:28:06;1.00;;;0.30;;
57889;SDS011;43707;50.184;18.966;2023-07-31T11:30:33;0.60;;;0.30;;
57889;SDS011;43707;50.184;18.966;2023-07-31T11:33:00;6.20;;;0.40;;
57889;SDS011;43707;50.184;18.966;2023-07-31T11:35:33;0.50;;;0.30;;
57889;SDS011;43707;50.184;18.966;2023-07-31T11:37:59;0.20;;;0.20;;
57889;SDS011;43707;50.184;18.966;2023-07-31T11:40:25;0.80;;;0.50;;
57889;SDS011;43707;50.184;18.966;2023-07-31T11:42:55;0.40;;;0.40;;
57889;SDS011;43707;50.184;18.966;2023-07-31T11:45:24;1.90;;;0.40;;
57889;SDS011;43707;50.184;18.966;2023-07-31T11:47:52;0.30;;;0.20;;
57889;SDS011;43707;50.184;18.966;2023-07-31T11:50:17;1.10;;;0.30;;
57889;SDS011;43707;50.184;18.966;2023-07-31T11:52:43;0.30;;;0.20;;
57889;SDS011;43707;50.184;18.966;2023-07-31T11:55:10;0.30;;;0.20;;
57889;SDS011;43707;50.184;18.966;2023-07-31T11:57:37;0.60;;;0.40;;
57889;SDS011;43707;50.184;18.966;2023-07-31T12:00:03;0.30;;;0.30;;
57889;SDS011;43707;50.184;18.966;2023-07-31T12:02:30;1.40;;;0.50;;
57889;SDS011;43707;50.184;18.966;2023-07-31T12:04:55;0.80;;;0.50;;
57889;SDS011;43707;50.184;18.966;2023-07-31T12:07:21;0.50;;;0.40;;
57889;SDS011;43707;50.184;18.966;2023-07-31T12:09:55;0.50;;;0.40;;
57889;SDS011;43707;50.184;18.966;2023-07-31T12:12:22;1.40;;;0.60;;
57889;SDS011;43707;50.184;18.966;2023-07-31T12:14:48;0.40;;;0.30;;
57889;SDS011;43707;50.184;18.966;2023-07-31T12:17:14;0.60;;;0.40;;
57889;SDS011;43707;50.184;18.966;2023-07-31T12:19:40;2.50;;;0.50;;
57889;SDS011;43707;50.184;18.966;2023-07-31T12:22:12;0.40;;;0.40;;
57889;SDS011;43707;50.184;18.966;2023-07-31T12:24:39;1.30;;;0.50;;
57889;SDS011;43707;50.184;18.966;2023-07-31T12:27:09;1.80;;;0.60;;
57889;SDS011;43707;50.184;18.966;2023-07-31T12:29:39;1.20;;;0.50;;
57889;SDS011;43707;50.184;18.966;2023-07-31T12:32:26;0.90;;;0.40;;
57889;SDS011;43707;50.184;18.966;2023-07-31T12:34:53;1.40;;;0.50;;
57889;SDS011;43707;50.184;18.966;2023-07-31T12:37:20;1.20;;;0.50;;
57889;SDS011;43707;50.184;18.966;2023-07-31T12:39:46;0.30;;;0.30;;
57889;SDS011;43707;50.184;18.966;2023-07-31T12:42:11;0.90;;;0.30;;
57889;SDS011;43707;50.184;18.966;2023-07-31T12:44:37;0.50;;;0.30;;
57889;SDS011;43707;50.184;18.966;2023-07-31T12:47:02;0.60;;;0.20;;
57889;SDS011;43707;50.184;18.966;2023-07-31T12:49:29;0.50;;;0.20;;
57889;SDS011;43707;50.184;18.966;2023-07-31T12:51:54;0.20;;;0.20;;
57889;SDS011;43707;50.184;18.966;2023-07-31T12:54:20;1.10;;;0.40;;
57889;SDS011;43707;50.184;18.966;2023-07-31T12:56:45;0.60;;;0.30;;
57889;SDS011;43707;50.184;18.966;2023-07-31T12:59:10;0.20;;;0.20;;
57889;SDS011;43707;50.184;18.966;2023-07-31T13:01:36;0.30;;;0.20;;
57889;SDS011;43707;50.184;18.966;2023-07-31T13:04:01;3.50;;;0.30;;
57889;SDS011;43707;50.184;18.966;2023-07-31T13:06:27;0.30;;;0.30;;
57889;SDS011;43707;50.184;18.966;2023-07-31T13:08:52;0.20;;;0.20;;
57889;SDS011;43707;50.184;18.966;2023-07-31T13:11:17;0.20;;;0.20;;
57889;SDS011;43707;50.184;18.966;2023-07-31T13:13:43;0.20;;;0.20;;
57889;SDS011;43707;50.184;18.966;2023-07-31T13:16:08;0.40;;;0.20;;
57889;SDS011;43707;50.184;18.966;2023-07-31T13:18:34;0.10;;;0.10;;
57889;SDS011;43707;50.184;18.966;2023-07-31T13:20:59;0.50;;;0.20;;
57889;SDS011;43707;50.184;18.966;2023-07-31T13:23:24;0.40;;;0.30;;
57889;SDS011;43707;50.184;18.966;2023-07-31T13:25:50;0.40;;;0.30;;
57889;SDS011;43707;50.184;18.966;2023-07-31T13:28:15;0.20;;;0.20;;
57889;SDS011;43707;50.184;18.966;2023-07-31T13:30:40;0.40;;;0.20;;
57889;SDS011;43707;50.184;18.966;2023-07-31T13:33:06;0.80;;;0.20;;
57889;SDS011;43707;50.184;18.966;2023-07-31T13:35:31;1.00;;;0.20;;
57889;SDS011;43707;50.184;18.966;2023-07-31T13:37:57;2.00;;;0.30;;
57889;SDS011;43707;50.184;18.966;2023-07-31T13:40:22;0.20;;;0.20;;
57889;SDS011;43707;50.184;18.966;2023-07-31T13:42:48;0.20;;;0.20;;
57889;SDS011;43707;50.184;18.966;2023-07-31T13:45:13;0.80;;;0.30;;
57889;SDS011;43707;50.184;18.966;2023-07-31T13:47:39;0.40;;;0.30;;
57889;SDS011;43707;50.184;18.966;2023-07-31T13:50:04;0.40;;;0.30;;
57889;SDS011;43707;50.184;18.966;2023-07-31T13:52:30;0.30;;;0.20;;
57889;SDS011;43707;50.184;18.966;2023-07-31T13:54:55;1.30;;;0.40;;
57889;SDS011;43707;50.184;18.966;2023-07-31T13:57:21;0.20;;;0.20;;
57889;SDS011;43707;50.184;18.966;2023-07-31T13:59:46;0.40;;;0.20;;
57889;SDS011;43707;50.184;18.966;2023-07-31T14:02:12;0.30;;;0.20;;
57889;SDS011;43707;50.184;18.966;2023-07-31T14:04:38;0.20;;;0.20;;
57889;SDS011;43707;50.184;18.966;2023-07-31T14:07:04;0.70;;;0.70;;
57889;SDS011;43707;50.184;18.966;2023-07-31T14:09:29;1.00;;;0.20;;
57889;SDS011;43707;50.184;18.966;2023-07-31T14:11:55;7.00;;;0.40;;
57889;SDS011;43707;50.184;18.966;2023-07-31T14:14:20;0.70;;;0.20;;
57889;SDS011;43707;50.184;18.966;2023-07-31T14:16:45;0.70;;;0.30;;
57889;SDS011;43707;50.184;18.966;2023-07-31T14:19:11;0.30;;;0.30;;
57889;SDS011;43707;50.184;18.966;2023-07-31T14:21:36;0.20;;;0.20;;
57889;SDS011;43707;50.184;18.966;2023-07-31T14:24:02;0.60;;;0.20;;
57889;SDS011;43707;50.184;18.966;2023-07-31T14:26:27;0.60;;;0.20;;
57889;SDS011;43707;50.184;18.966;2023-07-31T14:28:52;0.40;;;0.20;;
57889;SDS011;43707;50.184;18.966;2023-07-31T14:31:18;0.20;;;0.10;;
57889;SDS011;43707;50.184;18.966;2023-07-31T14:33:43;0.30;;;0.20;;
57889;SDS011;43707;50.184;18.966;2023-07-31T14:36:08;1.70;;;0.20;;
57889;SDS011;43707;50.184;18.966;2023-07-31T14:38:34;0.10;;;0.10;;
57889;SDS011;43707;50.184;18.966;2023-07-31T14:40:59;0.10;;;0.10;;